Time;durP1;ratioP1;P1;durP2;ratioP2;P2;SDS_P1;SDS_P2;PMS_P1;PMS_P2;Temp;Humidity;BMP_temperature;BMP_pressure;BME280_temperature;BME280_humidity;BME280_pressure;Samples;Min_cycle;Max_cycle;Signal;HPM_P1;HPM_P2
2023/07/19 00:00:13;;;;;;;6.45;2.92;;;20.20;71.20;;;;;;5094933;28;20086;-77
2023/07/19 00:02:39;;;;;;;4.85;3.20;;;20.20;71.20;;;;;;5094821;28;20035;-77
2023/07/19 00:05:05;;;;;;;6.85;3.22;;;20.20;71.10;;;;;;5094853;28;20048;-77
2023/07/19 00:07:30;;;;;;;6.35;3.20;;;20.10;71.40;;;;;;5077086;28;20024;-77
2023/07/19 00:09:56;;;;;;;5.97;3.40;;;20.10;71.70;;;;;;5077001;28;20035;-76
2023/07/19 00:12:21;;;;;;;5.65;3.20;;;20.10;71.70;;;;;;5093696;28;20059;-77
2023/07/19 00:14:47;;;;;;;6.45;3.50;;;20.00;71.90;;;;;;5094632;28;20031;-77
2023/07/19 00:17:13;;;;;;;6.07;3.40;;;20.00;72.00;;;;;;5093657;28;20052;-76
2023/07/19 00:19:39;;;;;;;5.97;3.75;;;20.00;72.10;;;;;;5093609;28;20028;-77
2023/07/19 00:22:05;;;;;;;6.05;3.38;;;20.00;72.20;;;;;;5093498;28;20035;-76
2023/07/19 00:24:31;;;;;;;7.43;3.70;;;20.00;72.60;;;;;;5093493;28;20044;-77
2023/07/19 00:26:56;;;;;;;6.90;4.05;;;20.00;72.70;;;;;;5094356;28;20028;-76
2023/07/19 00:29:22;;;;;;;8.02;3.97;;;20.00;72.90;;;;;;5076868;28;20119;-77
2023/07/19 00:31:48;;;;;;;9.57;3.75;;;20.00;72.80;;;;;;5093252;28;20020;-77
2023/07/19 00:34:14;;;;;;;6.93;3.83;;;20.00;72.90;;;;;;5076459;28;20089;-77
2023/07/19 00:36:39;;;;;;;6.07;4.10;;;20.00;73.10;;;;;;5094211;28;20028;-77
2023/07/19 00:39:05;;;;;;;9.82;3.83;;;20.00;73.40;;;;;;5094306;28;20111;-76
2023/07/19 00:41:31;;;;;;;9.10;4.22;;;20.00;73.10;;;;;;5094113;28;20036;-77
2023/07/19 00:43:56;;;;;;;8.23;4.32;;;20.00;72.90;;;;;;5094022;28;20029;-77
2023/07/19 00:46:22;;;;;;;12.27;4.65;;;20.00;73.00;;;;;;5093009;28;20096;-76
2023/07/19 00:48:48;;;;;;;5.78;4.07;;;20.00;73.00;;;;;;5092983;28;20092;-76
2023/07/19 00:51:14;;;;;;;6.43;4.40;;;19.90;73.20;;;;;;5092661;28;20060;-77
2023/07/19 00:53:40;;;;;;;9.38;4.65;;;19.90;73.40;;;;;;5076282;28;20032;-76
2023/07/19 00:56:07;;;;;;;8.45;4.30;;;19.90;73.40;;;;;;5093847;28;20029;-77
2023/07/19 00:58:34;;;;;;;5.68;4.10;;;19.90;73.70;;;;;;5092757;28;20024;-76
2023/07/19 01:01:01;;;;;;;6.55;4.07;;;19.90;73.80;;;;;;5092743;28;20024;-76
2023/07/19 01:03:27;;;;;;;6.32;4.15;;;19.90;73.90;;;;;;5093000;28;20032;-76
2023/07/19 01:05:53;;;;;;;9.82;4.25;;;19.80;73.70;;;;;;5092692;28;20036;-77
2023/07/19 01:08:19;;;;;;;5.25;4.13;;;19.80;73.80;;;;;;5092859;28;20033;-76
2023/07/19 01:10:46;;;;;;;6.60;4.22;;;19.70;73.90;;;;;;5093553;28;20054;-76
2023/07/19 01:13:12;;;;;;;6.93;3.90;;;19.50;74.10;;;;;;5092540;28;20024;-77
2023/07/19 01:15:40;;;;;;;8.60;4.32;;;19.40;74.40;;;;;;5092612;28;20021;-77
2023/07/19 01:18:06;;;;;;;10.40;4.18;;;19.20;74.70;;;;;;5093529;28;20036;-77
2023/07/19 01:20:33;;;;;;;9.82;5.18;;;19.00;75.50;;;;;;5092568;28;20092;-77
2023/07/19 01:22:58;;;;;;;9.95;5.88;;;18.90;76.00;;;;;;5075905;28;20032;-77
2023/07/19 01:25:24;;;;;;;10.23;5.70;;;18.90;76.10;;;;;;5092587;28;20052;-77
2023/07/19 01:27:50;;;;;;;10.18;5.47;;;18.90;76.10;;;;;;5092514;28;20028;-77
2023/07/19 01:30:16;;;;;;;6.32;4.57;;;18.80;76.40;;;;;;5092269;28;20029;-76
2023/07/19 01:32:41;;;;;;;8.27;4.78;;;18.80;76.70;;;;;;5093362;28;20028;-77
2023/07/19 01:35:07;;;;;;;7.93;5.03;;;18.70;77.10;;;;;;5092245;28;20031;-76
2023/07/19 01:37:33;;;;;;;6.82;4.72;;;18.70;77.30;;;;;;5093295;28;20029;-76
2023/07/19 01:40:00;;;;;;;6.88;4.68;;;18.60;77.60;;;;;;5093409;28;20062;-77
2023/07/19 01:42:26;;;;;;;9.27;5.45;;;18.60;78.30;;;;;;5092241;28;20035;-77
2023/07/19 01:44:53;;;;;;;10.60;5.00;;;18.40;78.70;;;;;;5075559;28;20024;-77
2023/07/19 01:47:19;;;;;;;7.45;4.78;;;18.40;79.10;;;;;;5092346;28;20048;-77
2023/07/19 01:49:44;;;;;;;6.53;4.35;;;18.50;78.90;;;;;;5092240;28;20032;-77
2023/07/19 01:52:10;;;;;;;7.03;4.70;;;18.60;78.70;;;;;;5075301;28;20039;-76
2023/07/19 01:54:35;;;;;;;8.30;4.60;;;18.60;78.60;;;;;;5092179;28;20497;-76
2023/07/19 01:57:01;;;;;;;6.53;4.28;;;18.70;78.30;;;;;;5093116;28;20021;-77
2023/07/19 01:59:27;;;;;;;5.93;4.45;;;18.70;78.10;;;;;;5093142;28;20039;-76
2023/07/19 02:01:53;;;;;;;6.30;3.78;;;18.70;77.90;;;;;;5093218;28;20052;-77
2023/07/19 02:04:19;;;;;;;6.10;4.10;;;18.80;77.70;;;;;;5092189;28;20031;-76
2023/07/19 02:06:45;;;;;;;5.40;3.92;;;18.80;77.20;;;;;;5092092;28;20021;-76
2023/07/19 02:09:11;;;;;;;5.50;3.83;;;18.70;77.10;;;;;;5092951;28;20044;-76
2023/07/19 02:11:36;;;;;;;6.45;4.35;;;18.70;77.30;;;;;;5075226;28;20032;-76
2023/07/19 02:14:03;;;;;;;8.45;4.45;;;18.60;77.70;;;;;;5092253;28;20052;-77
2023/07/19 02:16:28;;;;;;;5.32;3.63;;;18.50;78.00;;;;;;5096942;28;20028;-76
2023/07/19 02:18:54;;;;;;;5.10;3.50;;;18.60;77.90;;;;;;5095964;28;20035;-76
2023/07/19 02:21:20;;;;;;;5.97;3.67;;;18.60;77.70;;;;;;5079249;28;20029;-77
2023/07/19 02:23:45;;;;;;;6.40;3.90;;;18.70;77.60;;;;;;5095768;28;20028;-76
2023/07/19 02:26:11;;;;;;;4.80;3.60;;;18.70;77.40;;;;;;5095701;28;20042;-76
2023/07/19 02:28:37;;;;;;;5.18;3.75;;;18.80;77.10;;;;;;5096718;28;20025;-76
2023/07/19 02:31:03;;;;;;;6.47;4.13;;;18.70;76.80;;;;;;5095579;28;20017;-77
2023/07/19 02:33:29;;;;;;;6.32;4.30;;;18.70;76.90;;;;;;5078887;28;20063;-76
2023/07/19 02:35:55;;;;;;;7.72;4.20;;;18.70;77.80;;;;;;5096541;28;20050;-76
2023/07/19 02:38:22;;;;;;;4.80;3.95;;;18.70;77.10;;;;;;5096516;28;20021;-77
2023/07/19 02:40:47;;;;;;;7.00;4.13;;;18.70;77.90;;;;;;5095440;28;20036;-77
2023/07/19 02:43:13;;;;;;;5.75;3.85;;;18.70;77.10;;;;;;5078808;28;20096;-77
2023/07/19 02:45:39;;;;;;;6.20;3.50;;;18.70;77.30;;;;;;5096370;28;20029;-76
2023/07/19 02:48:05;;;;;;;8.63;4.10;;;18.70;77.10;;;;;;5095383;28;20024;-76
2023/07/19 02:50:31;;;;;;;7.18;4.22;;;18.70;77.10;;;;;;5096348;28;20032;-76
2023/07/19 02:52:57;;;;;;;6.35;3.55;;;18.70;77.00;;;;;;5094916;28;20041;-76
2023/07/19 02:55:23;;;;;;;6.07;3.92;;;18.70;76.90;;;;;;5096197;28;20032;-77
2023/07/19 02:57:49;;;;;;;8.10;4.22;;;18.70;76.80;;;;;;5096285;28;20021;-76
2023/07/19 03:00:15;;;;;;;6.43;3.70;;;18.70;76.80;;;;;;5096118;28;20027;-76
2023/07/19 03:02:40;;;;;;;6.85;4.30;;;18.70;76.80;;;;;;5095190;28;20037;-76
2023/07/19 03:05:06;;;;;;;7.63;3.90;;;18.70;76.80;;;;;;5094999;28;20025;-76
2023/07/19 03:07:32;;;;;;;7.38;4.47;;;18.70;76.90;;;;;;5095233;28;20033;-76
2023/07/19 03:09:59;;;;;;;7.43;4.82;;;18.70;77.10;;;;;;5095858;28;20080;-76
2023/07/19 03:12:24;;;;;;;6.32;4.72;;;18.60;77.00;;;;;;5094902;28;20047;-76
2023/07/19 03:14:50;;;;;;;6.57;4.03;;;18.60;77.40;;;;;;5095855;28;20112;-76
2023/07/19 03:17:15;;;;;;;8.55;5.45;;;18.60;77.60;;;;;;5094828;28;20025;-77
2023/07/19 03:19:41;;;;;;;9.57;4.60;;;18.60;77.80;;;;;;5094844;28;20032;-76
2023/07/19 03:22:07;;;;;;;6.85;5.07;;;18.70;78.00;;;;;;5094752;28;20058;-77
2023/07/19 03:24:34;;;;;;;7.07;4.90;;;18.60;78.30;;;;;;5094777;28;20031;-76
2023/07/19 03:26:59;;;;;;;8.38;5.45;;;18.70;78.40;;;;;;5094791;28;20505;-77
2023/07/19 03:29:25;;;;;;;7.82;4.90;;;18.80;78.50;;;;;;5094625;28;20037;-76
2023/07/19 03:31:51;;;;;;;7.20;4.82;;;18.80;78.30;;;;;;5094565;28;20021;-76
2023/07/19 03:34:16;;;;;;;7.50;5.18;;;18.90;78.40;;;;;;5095396;28;20046;-77
2023/07/19 03:36:42;;;;;;;8.82;5.13;;;18.90;78.40;;;;;;5094542;28;20119;-76
2023/07/19 03:39:07;;;;;;;9.10;5.03;;;18.90;78.40;;;;;;5077724;28;20091;-76
2023/07/19 03:41:33;;;;;;;6.97;4.97;;;18.80;78.40;;;;;;5094568;28;20573;-76
2023/07/19 03:43:59;;;;;;;8.32;5.38;;;18.80;78.70;;;;;;5094402;28;20029;-76
2023/07/19 03:46:24;;;;;;;7.70;5.13;;;18.80;79.00;;;;;;5094303;28;20040;-76
2023/07/19 03:48:50;;;;;;;7.47;5.03;;;18.80;78.90;;;;;;5094127;28;20108;-76
2023/07/19 03:51:15;;;;;;;8.30;5.15;;;18.70;79.20;;;;;;5094220;28;20025;-76
2023/07/19 03:53:41;;;;;;;7.65;5.53;;;18.60;79.50;;;;;;5094985;28;20049;-77
2023/07/19 03:56:07;;;;;;;7.72;5.10;;;18.60;79.60;;;;;;5094182;28;20020;-76
2023/07/19 03:58:32;;;;;;;8.48;5.32;;;18.60;79.80;;;;;;5094174;28;20032;-77
2023/07/19 04:00:59;;;;;;;7.45;4.90;;;18.70;80.00;;;;;;5094936;28;20472;-76
2023/07/19 04:03:26;;;;;;;6.95;5.05;;;18.70;80.00;;;;;;5094910;28;20021;-77
2023/07/19 04:05:54;;;;;;;6.78;5.15;;;18.70;80.10;;;;;;5077235;28;20029;-77
2023/07/19 04:08:19;;;;;;;8.55;5.15;;;18.70;80.10;;;;;;5094803;28;20025;-76
2023/07/19 04:10:45;;;;;;;9.35;5.63;;;18.70;79.80;;;;;;5094686;28;20039;-76
2023/07/19 04:13:12;;;;;;;7.35;5.18;;;18.70;79.80;;;;;;5093846;28;20035;-76
2023/07/19 04:15:37;;;;;;;8.80;6.05;;;18.60;80.00;;;;;;5094795;28;20025;-76
2023/07/19 04:18:03;;;;;;;7.28;5.20;;;18.50;80.80;;;;;;5094609;28;20032;-76
2023/07/19 04:20:29;;;;;;;9.30;5.70;;;18.50;81.10;;;;;;5093614;28;20036;-77
2023/07/19 04:22:55;;;;;;;7.72;5.20;;;18.50;81.60;;;;;;5093477;28;20066;-76
2023/07/19 04:25:21;;;;;;;8.70;5.53;;;18.60;81.70;;;;;;5094461;28;20020;-76
2023/07/19 04:27:47;;;;;;;8.85;5.38;;;18.60;81.30;;;;;;5093526;28;20032;-76
2023/07/19 04:30:13;;;;;;;9.82;5.75;;;18.60;81.50;;;;;;5094308;28;20047;-76
2023/07/19 04:32:39;;;;;;;8.88;6.03;;;18.60;81.30;;;;;;5094332;28;20027;-76
2023/07/19 04:35:06;;;;;;;10.02;5.78;;;18.50;81.60;;;;;;5076725;28;20017;-77
2023/07/19 04:37:32;;;;;;;8.85;5.90;;;18.50;81.90;;;;;;5076356;28;20036;-76
2023/07/19 04:39:58;;;;;;;8.10;6.38;;;18.60;81.90;;;;;;5093932;28;20032;-76
2023/07/19 04:42:24;;;;;;;10.80;6.72;;;18.50;81.90;;;;;;5094167;28;20131;-77
2023/07/19 04:44:50;;;;;;;8.90;6.20;;;18.50;82.40;;;;;;5093145;28;20068;-77
2023/07/19 04:47:16;;;;;;;7.30;6.18;;;18.50;82.30;;;;;;5093175;28;20028;-78
2023/07/19 04:49:42;;;;;;;11.15;6.88;;;18.50;82.40;;;;;;5093925;28;20039;-77
2023/07/19 04:52:08;;;;;;;10.70;6.70;;;18.50;82.70;;;;;;5092710;28;20040;-76
2023/07/19 04:54:34;;;;;;;9.75;6.55;;;18.50;82.90;;;;;;5093942;28;20039;-77
2023/07/19 04:57:00;;;;;;;10.73;6.78;;;18.60;83.10;;;;;;5092925;28;20071;-77
2023/07/19 04:59:26;;;;;;;8.43;6.60;;;18.60;83.40;;;;;;5092780;28;20054;-76
2023/07/19 05:01:52;;;;;;;8.45;6.30;;;18.60;83.60;;;;;;5093832;28;20033;-76
2023/07/19 05:04:18;;;;;;;12.32;6.28;;;18.70;83.70;;;;;;5092694;28;20017;-77
2023/07/19 05:06:43;;;;;;;8.25;5.85;;;18.70;83.40;;;;;;5093829;28;20526;-77
2023/07/19 05:09:10;;;;;;;9.70;6.47;;;18.80;83.20;;;;;;5093619;28;20028;-76
2023/07/19 05:11:36;;;;;;;9.88;6.95;;;18.80;83.10;;;;;;5093652;28;20021;-77
2023/07/19 05:14:02;;;;;;;9.93;6.53;;;18.90;82.90;;;;;;5093620;28;20494;-76
2023/07/19 05:16:27;;;;;;;9.93;7.18;;;18.90;82.70;;;;;;5093612;28;20020;-76
2023/07/19 05:18:53;;;;;;;13.57;7.45;;;19.00;82.60;;;;;;5093563;28;20033;-77
2023/07/19 05:21:19;;;;;;;15.18;7.93;;;19.00;82.10;;;;;;5092581;28;20032;-77
2023/07/19 05:23:45;;;;;;;11.07;7.15;;;18.90;82.20;;;;;;5093479;28;20020;-76
2023/07/19 05:26:10;;;;;;;11.40;7.63;;;18.90;82.40;;;;;;5093452;28;20031;-77
2023/07/19 05:28:36;;;;;;;13.40;7.65;;;18.80;82.30;;;;;;5092504;28;20044;-78
2023/07/19 05:31:04;;;;;;;15.55;7.45;;;18.80;82.70;;;;;;5093336;28;20036;-77
2023/07/19 05:33:32;;;;;;;12.80;7.97;;;18.80;82.40;;;;;;5092302;28;20483;-77
2023/07/19 05:35:57;;;;;;;12.90;7.55;;;18.80;81.90;;;;;;5092365;28;20012;-77
2023/07/19 05:38:23;;;;;;;12.27;8.40;;;18.80;81.90;;;;;;5092379;28;20055;-77
2023/07/19 05:40:48;;;;;;;9.57;7.15;;;18.90;81.90;;;;;;5092309;28;20029;-77
2023/07/19 05:43:15;;;;;;;9.98;7.35;;;18.90;81.90;;;;;;5093384;28;20036;-77
2023/07/19 05:45:40;;;;;;;12.15;7.85;;;18.90;81.90;;;;;;5075578;28;20035;-77
2023/07/19 05:48:06;;;;;;;11.35;7.03;;;18.90;81.60;;;;;;5092240;28;20033;-77
2023/07/19 05:50:32;;;;;;;11.13;7.32;;;18.90;81.40;;;;;;5097335;28;20036;-77
2023/07/19 05:52:57;;;;;;;10.90;7.13;;;19.00;81.50;;;;;;5098786;28;20055;-77
2023/07/19 05:55:24;;;;;;;10.52;7.40;;;19.00;81.40;;;;;;5082119;28;20024;-77
2023/07/19 05:57:50;;;;;;;13.05;7.07;;;19.10;81.30;;;;;;5099901;28;20039;-77
2023/07/19 06:00:24;;;;;;;12.18;7.43;;;19.10;81.30;;;;;;5098854;28;20039;-78
2023/07/19 06:02:53;;;;;;;10.48;6.97;;;19.20;81.00;;;;;;5099907;28;20020;-77
2023/07/19 06:05:19;;;;;;;10.90;6.93;;;19.30;80.70;;;;;;5098885;28;20031;-77
2023/07/19 06:07:46;;;;;;;9.95;7.10;;;19.40;80.60;;;;;;5098806;28;20032;-77
2023/07/19 06:10:12;;;;;;;9.38;6.68;;;19.40;80.40;;;;;;5098668;28;20036;-77
2023/07/19 06:12:38;;;;;;;10.57;6.75;;;19.40;79.80;;;;;;5099682;28;20033;-77
2023/07/19 06:15:04;;;;;;;9.30;6.65;;;19.40;79.30;;;;;;5098832;28;20048;-77
2023/07/19 06:17:29;;;;;;;11.05;7.10;;;19.40;79.20;;;;;;5098703;28;20029;-77
2023/07/19 06:19:55;;;;;;;10.45;6.72;;;19.50;79.30;;;;;;5081921;28;20038;-77
2023/07/19 06:22:20;;;;;;;9.60;5.95;;;19.50;79.20;;;;;;5098572;28;20036;-77
2023/07/19 06:24:46;;;;;;;10.23;6.20;;;19.60;79.00;;;;;;5098301;28;20035;-77
2023/07/19 06:27:12;;;;;;;9.32;6.97;;;19.60;78.80;;;;;;5098556;28;20032;-78
2023/07/19 06:29:38;;;;;;;10.90;6.53;;;19.70;78.60;;;;;;5098595;28;20037;-77
2023/07/19 06:32:05;;;;;;;12.77;6.78;;;19.70;78.50;;;;;;5098576;28;20021;-78
2023/07/19 06:34:30;;;;;;;14.20;7.20;;;19.80;78.50;;;;;;5081827;28;20025;-77
2023/07/19 06:36:56;;;;;;;12.30;7.18;;;19.80;78.50;;;;;;5098561;28;20050;-77
2023/07/19 06:39:21;;;;;;;9.05;6.00;;;19.90;78.70;;;;;;5098687;28;20089;-79
2023/07/19 06:41:47;;;;;;;8.82;5.70;;;20.00;78.30;;;;;;5099420;28;20071;-80
2023/07/19 06:44:13;;;;;;;8.13;5.05;;;20.10;78.10;;;;;;5081774;28;20025;-80
2023/07/19 06:46:38;;;;;;;27.10;5.72;;;20.20;78.30;;;;;;5081618;28;20138;-79
2023/07/19 06:49:04;;;;;;;9.50;4.97;;;20.20;77.70;;;;;;5098381;28;20023;-78
2023/07/19 06:51:36;;;;;;;12.07;4.30;;;20.30;76.80;;;;;;5099480;28;20048;-81
2023/07/19 06:54:02;;;;;;;6.28;4.07;;;20.30;76.60;;;;;;5098248;28;20028;-81
2023/07/19 06:56:28;;;;;;;10.07;4.25;;;20.40;76.20;;;;;;5098271;28;20036;-81
2023/07/19 06:58:56;;;;;;;7.55;4.30;;;20.30;75.50;;;;;;5098427;28;20048;-82
2023/07/19 07:01:25;;;;;;;7.78;4.00;;;20.30;75.40;;;;;;5078885;28;20037;-80
2023/07/19 07:03:51;;;;;;;7.85;3.72;;;20.40;75.40;;;;;;5095144;28;20025;-80
2023/07/19 07:06:17;;;;;;;8.13;4.43;;;20.40;75.10;;;;;;5094929;28;20035;-82
2023/07/19 07:08:43;;;;;;;9.13;4.00;;;20.40;75.20;;;;;;5095156;28;20040;-83
2023/07/19 07:11:09;;;;;;;9.48;3.78;;;20.40;74.90;;;;;;5095060;28;20089;-84
2023/07/19 07:13:35;;;;;;;8.32;3.90;;;20.50;75.00;;;;;;5094941;28;20020;-84
2023/07/19 07:19:05;;;;;;;5.20;2.75;;;20.60;74.60;;;;;;5072537;28;20035;-82
2023/07/19 07:21:31;;;;;;;7.55;3.53;;;20.60;74.00;;;;;;5094720;28;20033;-82
2023/07/19 07:24:42;;;;;;;6.40;3.60;;;20.70;73.70;;;;;;5078307;28;20035;-81
2023/07/19 07:27:08;;;;;;;6.82;3.00;;;20.80;73.50;;;;;;5094599;28;20020;-74
2023/07/19 07:32:40;;;;;;;5.32;3.03;;;20.90;73.50;;;;;;5095268;28;20469;-74
2023/07/19 07:35:06;;;;;;;7.22;2.97;;;21.00;73.40;;;;;;5094545;28;20017;-74
2023/07/19 07:37:32;;;;;;;8.57;3.28;;;21.00;73.10;;;;;;5094496;28;20031;-75
2023/07/19 07:39:58;;;;;;;6.53;2.70;;;21.20;73.50;;;;;;5095332;28;20054;-75
2023/07/19 07:42:24;;;;;;;9.73;2.90;;;21.30;73.00;;;;;;5094296;28;20032;-76
2023/07/19 07:44:52;;;;;;;7.70;3.08;;;21.30;72.80;;;;;;5095313;28;20020;-75
2023/07/19 07:47:18;;;;;;;5.40;2.60;;;21.40;71.80;;;;;;5095367;28;20037;-75
2023/07/19 07:49:46;;;;;;;8.93;3.90;;;21.40;72.00;;;;;;5095034;28;20047;-74
2023/07/19 07:52:15;;;;;;;6.20;2.95;;;21.50;72.10;;;;;;5094888;28;20047;-75
2023/07/19 07:54:41;;;;;;;5.85;2.78;;;21.60;71.80;;;;;;5094126;28;20017;-75
2023/07/19 07:57:06;;;;;;;8.32;3.50;;;21.60;71.40;;;;;;5095054;28;20080;-77
2023/07/19 07:59:32;;;;;;;18.23;11.90;;;21.60;71.60;;;;;;5093959;28;20100;-74
2023/07/19 08:01:58;;;;;;;11.20;6.40;;;21.70;71.80;;;;;;5077268;28;20028;-74
2023/07/19 08:04:23;;;;;;;6.43;3.22;;;21.80;71.70;;;;;;5093922;28;20100;-74
2023/07/19 08:06:49;;;;;;;6.93;3.38;;;21.80;71.50;;;;;;5093963;28;20032;-74
2023/07/19 08:09:21;;;;;;;7.65;3.05;;;21.80;70.90;;;;;;5077042;28;20036;-75
2023/07/19 08:11:47;;;;;;;6.90;3.25;;;21.90;71.10;;;;;;5093895;28;20031;-74
2023/07/19 08:14:12;;;;;;;5.90;3.00;;;21.90;70.80;;;;;;5094435;28;20029;-74
2023/07/19 08:16:38;;;;;;;7.65;3.25;;;21.90;70.50;;;;;;5093585;28;20031;-74
2023/07/19 08:19:03;;;;;;;6.47;3.92;;;21.90;70.50;;;;;;5094652;28;20088;-74
2023/07/19 08:21:29;;;;;;;8.50;3.38;;;21.90;69.90;;;;;;5093696;28;20032;-74
2023/07/19 08:23:55;;;;;;;10.00;4.40;;;22.00;70.50;;;;;;5076951;28;20024;-74
2023/07/19 08:26:27;;;;;;;7.25;3.58;;;22.00;70.80;;;;;;5093453;28;20095;-75
2023/07/19 08:28:53;;;;;;;8.35;3.50;;;22.00;70.90;;;;;;5094429;28;20020;-75
2023/07/19 08:31:19;;;;;;;4.70;3.13;;;22.10;71.10;;;;;;5093438;28;20072;-76
2023/07/19 08:33:44;;;;;;;9.00;4.15;;;22.10;70.30;;;;;;5094207;28;20017;-75
2023/07/19 08:36:10;;;;;;;9.23;3.40;;;22.10;69.90;;;;;;5076632;28;20099;-76
2023/07/19 08:38:36;;;;;;;7.45;3.20;;;22.10;69.80;;;;;;5094152;28;20032;-75
2023/07/19 08:41:03;;;;;;;5.95;3.50;;;22.10;68.70;;;;;;5076467;28;20035;-75
2023/07/19 08:43:31;;;;;;;7.55;3.30;;;22.20;68.70;;;;;;5093107;28;20036;-75
2023/07/19 08:45:57;;;;;;;4.88;2.80;;;22.20;69.70;;;;;;5093323;28;20047;-74
2023/07/19 08:48:23;;;;;;;5.65;2.78;;;22.10;68.00;;;;;;5094036;28;20486;-74
2023/07/19 08:50:55;;;;;;;5.38;2.42;;;22.20;68.70;;;;;;5092843;28;20041;-75
2023/07/19 08:53:22;;;;;;;6.30;2.97;;;22.30;67.10;;;;;;5092754;28;20064;-74
2023/07/19 08:55:49;;;;;;;7.22;3.38;;;22.40;68.20;;;;;;5093849;28;20027;-75
2023/07/19 08:58:17;;;;;;;6.50;3.63;;;22.40;67.40;;;;;;5092768;28;20021;-75
2023/07/19 09:00:44;;;;;;;7.65;2.50;;;22.40;67.20;;;;;;5092729;28;20028;-75
2023/07/19 09:03:10;;;;;;;5.47;2.80;;;22.50;67.20;;;;;;5093787;28;20080;-75
2023/07/19 09:05:38;;;;;;;4.47;1.80;;;22.50;66.80;;;;;;5093708;28;20043;-75
2023/07/19 09:08:04;;;;;;;3.15;1.52;;;22.60;65.80;;;;;;5092792;28;20054;-74
2023/07/19 09:10:33;;;;;;;3.47;1.95;;;22.60;64.60;;;;;;5075925;28;20039;-74
2023/07/19 09:13:04;;;;;;;3.67;1.95;;;22.60;65.00;;;;;;5093666;28;20090;-75
2023/07/19 09:15:30;;;;;;;3.83;1.95;;;22.60;64.50;;;;;;5093643;28;20024;-74
2023/07/19 09:17:55;;;;;;;4.50;1.73;;;22.60;65.10;;;;;;5093610;28;20036;-75
2023/07/19 09:20:37;;;;;;;4.38;2.03;;;22.60;64.90;;;;;;5075885;28;20028;-75
2023/07/19 09:23:21;;;;;;;4.43;1.80;;;22.60;64.30;;;;;;5092290;28;20040;-74
2023/07/19 09:26:03;;;;;;;4.43;2.10;;;22.60;64.70;;;;;;5076450;28;20054;-74
2023/07/19 09:28:30;;;;;;;5.63;2.13;;;22.60;65.00;;;;;;5092847;28;20097;-74
2023/07/19 09:31:15;;;;;;;4.65;2.30;;;22.60;66.30;;;;;;5091350;28;20048;-74
2023/07/19 09:33:41;;;;;;;8.13;2.85;;;22.70;64.90;;;;;;5092502;28;20103;-73
2023/07/19 09:36:07;;;;;;;7.53;2.70;;;22.60;65.50;;;;;;5091432;28;20025;-73
2023/07/19 09:38:33;;;;;;;5.72;3.08;;;22.60;65.60;;;;;;5092403;28;20116;-74
2023/07/19 09:40:58;;;;;;;5.85;2.47;;;22.60;65.80;;;;;;5092292;28;20017;-74
2023/07/19 09:43:24;;;;;;;5.18;3.03;;;22.70;66.10;;;;;;5075485;28;20143;-73
2023/07/19 09:45:51;;;;;;;6.20;2.70;;;22.80;66.80;;;;;;5092294;28;20506;-74
2023/07/19 09:48:19;;;;;;;5.55;2.60;;;22.80;66.40;;;;;;5092254;28;20020;-73
2023/07/19 09:50:49;;;;;;;4.90;3.30;;;22.80;66.80;;;;;;5093130;28;20100;-73
2023/07/19 09:53:15;;;;;;;6.45;2.78;;;22.70;66.30;;;;;;5092915;28;20041;-73
2023/07/19 09:55:44;;;;;;;9.02;3.35;;;22.60;67.00;;;;;;5093139;28;20050;-74
2023/07/19 09:58:12;;;;;;;6.55;3.15;;;22.70;67.60;;;;;;5093164;28;20047;-74
2023/07/19 10:00:41;;;;;;;6.95;3.17;;;22.70;68.30;;;;;;5093202;28;20088;-74
2023/07/19 10:03:08;;;;;;;5.82;3.10;;;22.90;68.40;;;;;;5093103;28;20039;-74
2023/07/19 10:05:34;;;;;;;6.95;3.30;;;23.10;68.30;;;;;;5093097;28;20040;-74
2023/07/19 10:08:05;;;;;;;7.03;3.10;;;23.10;67.60;;;;;;5093193;28;20056;-74
2023/07/19 10:10:41;;;;;;;6.53;3.65;;;23.30;68.20;;;;;;5091974;28;20128;-75
2023/07/19 10:13:07;;;;;;;6.82;3.45;;;23.30;68.00;;;;;;5093001;28;20055;-74
2023/07/19 10:15:35;;;;;;;7.85;3.67;;;23.30;68.00;;;;;;5092131;28;20024;-74
2023/07/19 10:18:01;;;;;;;5.93;3.28;;;23.40;68.00;;;;;;5092983;28;20017;-74
2023/07/19 10:20:34;;;;;;;7.72;3.00;;;23.40;69.30;;;;;;5091991;28;20031;-74
2023/07/19 10:23:05;;;;;;;4.47;2.80;;;23.50;68.60;;;;;;5075204;28;20032;-74
2023/07/19 10:25:35;;;;;;;3.88;2.17;;;23.50;68.50;;;;;;5092002;28;20028;-74
2023/07/19 10:28:10;;;;;;;5.78;2.53;;;23.50;68.10;;;;;;5092217;28;20092;-74
2023/07/19 10:31:01;;;;;;;5.80;2.30;;;23.40;67.50;;;;;;5092852;28;20028;-74
2023/07/19 10:33:29;;;;;;;4.90;2.45;;;23.30;68.30;;;;;;5092812;28;20080;-73
2023/07/19 10:36:06;;;;;;;5.80;2.10;;;23.40;68.80;;;;;;5094220;28;20049;-73
2023/07/19 10:38:32;;;;;;;6.47;2.25;;;23.50;68.10;;;;;;5095699;28;20033;-73
2023/07/19 10:41:00;;;;;;;4.50;2.47;;;23.50;68.30;;;;;;5095580;28;20028;-73
2023/07/19 10:43:28;;;;;;;5.00;2.25;;;23.40;67.90;;;;;;5096451;28;20045;-73
2023/07/19 10:45:55;;;;;;;4.50;2.03;;;23.40;68.40;;;;;;5095475;28;20080;-73
2023/07/19 10:48:28;;;;;;;2.75;2.40;;;23.40;68.50;;;;;;5096379;28;20032;-73
2023/07/19 10:51:05;;;;;;;7.43;2.05;;;23.50;67.70;;;;;;5095230;28;20476;-73
2023/07/19 10:53:58;;;;;;;5.97;2.30;;;23.60;67.60;;;;;;5096198;28;20036;-74
2023/07/19 10:56:24;;;;;;;4.50;2.22;;;23.60;67.60;;;;;;5096245;28;20043;-73
2023/07/19 10:58:50;;;;;;;8.18;2.33;;;23.70;67.40;;;;;;5095266;28;20029;-74
2023/07/19 11:01:16;;;;;;;3.15;2.00;;;23.70;66.80;;;;;;5096305;28;20029;-74
2023/07/19 11:03:46;;;;;;;5.45;2.45;;;23.70;66.80;;;;;;5096103;28;20031;-74
2023/07/19 11:06:12;;;;;;;5.85;2.00;;;23.70;66.90;;;;;;5094999;28;20372;-74
2023/07/19 11:08:37;;;;;;;5.30;2.13;;;23.70;66.40;;;;;;5078279;28;20115;-73
2023/07/19 11:11:03;;;;;;;4.57;1.67;;;23.70;66.10;;;;;;5095137;28;20051;-74
2023/07/19 11:13:30;;;;;;;4.18;1.83;;;23.70;65.70;;;;;;5094942;28;20013;-73
2023/07/19 11:15:58;;;;;;;4.47;1.90;;;23.70;65.20;;;;;;5095952;28;20467;-73
2023/07/19 11:18:27;;;;;;;3.05;1.75;;;23.80;64.80;;;;;;5095866;28;20036;-73
2023/07/19 11:20:57;;;;;;;5.95;1.90;;;23.70;65.20;;;;;;5095833;28;20032;-73
2023/07/19 11:23:27;;;;;;;5.28;1.80;;;23.70;64.00;;;;;;5078071;28;20021;-73
2023/07/19 11:26:09;;;;;;;4.28;1.90;;;23.70;65.00;;;;;;5095689;28;20046;-73
2023/07/19 11:28:49;;;;;;;3.45;1.60;;;23.80;64.80;;;;;;5094779;28;20059;-74
2023/07/19 11:31:35;;;;;;;4.28;1.70;;;23.80;64.70;;;;;;5095600;28;20596;-74
2023/07/19 11:34:12;;;;;;;4.75;1.83;;;23.70;64.40;;;;;;5095473;28;20107;-73
2023/07/19 11:36:42;;;;;;;6.30;1.85;;;23.60;64.40;;;;;;5095519;28;20020;-73
2023/07/19 11:39:22;;;;;;;4.25;2.25;;;23.60;64.80;;;;;;5077955;28;20079;-73
2023/07/19 11:41:51;;;;;;;3.80;1.90;;;23.60;63.80;;;;;;5094622;28;20028;-74
2023/07/19 11:44:19;;;;;;;4.72;2.03;;;23.50;64.70;;;;;;5095336;28;20044;-73
2023/07/19 11:46:45;;;;;;;4.78;1.85;;;23.50;65.20;;;;;;5093925;28;20024;-74
2023/07/19 11:49:11;;;;;;;4.97;2.00;;;23.60;64.90;;;;;;5093986;28;20458;-74
2023/07/19 11:51:40;;;;;;;5.47;2.05;;;23.60;64.40;;;;;;5077452;28;20049;-73
2023/07/19 11:54:06;;;;;;;2.55;1.50;;;23.70;64.80;;;;;;5095057;28;20053;-74
2023/07/19 11:56:32;;;;;;;3.63;1.70;;;23.70;63.80;;;;;;5077686;28;20055;-74
2023/07/19 11:58:58;;;;;;;3.78;1.77;;;23.60;62.20;;;;;;5095085;28;20035;-73
2023/07/19 12:01:27;;;;;;;5.10;1.80;;;23.60;63.30;;;;;;5094022;28;20028;-73
2023/07/19 12:03:53;;;;;;;3.55;1.67;;;23.70;64.30;;;;;;5094951;28;20040;-73
2023/07/19 12:06:18;;;;;;;2.00;1.58;;;23.50;64.00;;;;;;5093967;28;20051;-73
2023/07/19 12:08:44;;;;;;;3.45;1.40;;;23.40;63.90;;;;;;5094848;28;20059;-73
2023/07/19 12:11:11;;;;;;;4.03;1.52;;;23.40;64.90;;;;;;5093806;28;20037;-73
2023/07/19 12:13:36;;;;;;;5.57;1.80;;;23.50;66.10;;;;;;5094767;28;20506;-74
2023/07/19 12:16:03;;;;;;;5.53;1.75;;;23.70;65.70;;;;;;5094744;28;20028;-74
2023/07/19 12:18:30;;;;;;;5.35;1.75;;;23.70;66.40;;;;;;5093901;28;20023;-74
2023/07/19 12:20:56;;;;;;;4.65;1.63;;;23.90;64.80;;;;;;5094787;28;20024;-73
2023/07/19 12:23:22;;;;;;;2.90;1.45;;;24.10;64.40;;;;;;5093599;28;20092;-74
2023/07/19 12:25:48;;;;;;;1.25;1.08;;;24.30;63.90;;;;;;5093487;28;20033;-73
2023/07/19 12:28:14;;;;;;;2.67;1.40;;;24.50;62.30;;;;;;5076799;28;20027;-74
2023/07/19 12:30:41;;;;;;;5.22;1.40;;;24.50;61.20;;;;;;5093568;28;20029;-74
2023/07/19 12:33:07;;;;;;;4.18;1.27;;;24.40;60.60;;;;;;5094262;28;20025;-73
2023/07/19 12:35:32;;;;;;;2.95;1.52;;;24.30;61.20;;;;;;5093361;28;20479;-73
2023/07/19 12:37:58;;;;;;;3.28;1.08;;;24.40;62.00;;;;;;5094243;28;20029;-74
2023/07/19 12:40:24;;;;;;;2.45;1.20;;;24.40;60.70;;;;;;5093170;28;20039;-73
2023/07/19 12:42:49;;;;;;;3.08;1.08;;;24.40;60.60;;;;;;5093212;28;20029;-74
2023/07/19 12:45:19;;;;;;;4.45;1.33;;;24.40;59.60;;;;;;5093244;28;20029;-73
2023/07/19 12:47:45;;;;;;;2.17;1.20;;;24.50;59.10;;;;;;5094076;28;20097;-73
2023/07/19 12:50:10;;;;;;;3.80;1.30;;;24.50;59.40;;;;;;5092987;28;20024;-74